This is the latest recevied weather packets stored in our database for station/object WX2P-13. If no packets are shown the sender has not sent any weather packets the latest 1 day(s).
| Time | Temp. | Humidity | Pressure | Rain* | Wind** | Luminosity | Snow |
|---|---|---|---|---|---|---|---|
| 1778003039 | 30° C | 49% | 1016.2 hPa | 0 mm | 0.89 m/s, 326° | 760 W/m² | - |
| 1778002734 | 29.44° C | 52% | 1016.3 hPa | 0 mm | 0.45 m/s, 316° | 782 W/m² | - |
| 1778002431 | 27.78° C | 55% | 1016.3 hPa | 0 mm | 0.45 m/s, 130° | 812 W/m² | - |
| 1778002128 | 27.78° C | 56% | 1016.5 hPa | 0 mm | 0 m/s | 133 W/m² | - |
| 1778001826 | 28.33° C | 55% | 1016.8 hPa | 0 mm | 0.45 m/s, 53° | 106 W/m² | - |
| 1778001525 | 28.89° C | 54% | 1016.6 hPa | 0 mm | 0.45 m/s, 88° | 107 W/m² | - |
| 1778001222 | 29.44° C | 52% | 1016.6 hPa | 0 mm | 0.89 m/s, 183° | 189 W/m² | - |
| 1778000919 | 29.44° C | 54% | 1016.7 hPa | 0 mm | 0 m/s | 628 W/m² | - |
| 1778000616 | 29.44° C | 53% | 1016.9 hPa | 0 mm | 0 m/s | 661 W/m² | - |
| 1778000311 | 28.89° C | 53% | 1016.9 hPa | 0 mm | 0.45 m/s, 278° | 707 W/m² | - |
| 1778000007 | 28.33° C | 55% | 1016.7 hPa | 0 mm | 0.45 m/s, 206° | 278 W/m² | - |
| 1777999703 | 28.89° C | 54% | 1017.1 hPa | 0 mm | 0.45 m/s, 41° | 190 W/m² | - |
| 1777999400 | 29.44° C | 53% | 1017 hPa | 0 mm | 0 m/s | 490 W/m² | - |
| 1777999098 | 28.33° C | 55% | 1016.7 hPa | 0 mm | 0.45 m/s, 58° | 804 W/m² | - |
| 1777998796 | 28.33° C | 54% | 1017 hPa | 0 mm | 0.45 m/s, 163° | 218 W/m² | - |
| 1777998494 | 28.33° C | 56% | 1017 hPa | 0 mm | 0 m/s | 801 W/m² | - |
| 1777998190 | 27.78° C | 56% | 1016.9 hPa | 0 mm | 0 m/s | 217 W/m² | - |
| 1777997888 | 28.33° C | 55% | 1017 hPa | 0 mm | 0 m/s | 168 W/m² | - |
| 1777997585 | 30° C | 53% | 1017.2 hPa | 0 mm | 0.45 m/s, 73° | 387 W/m² | - |
| 1777997282 | 28.89° C | 55% | 1017.1 hPa | 0 mm | 0 m/s | 832 W/m² | - |
| 1777996980 | 28.33° C | 55% | 1017 hPa | 0 mm | 0 m/s | 583 W/m² | - |
| 1777996676 | 28.33° C | 56% | 1017.1 hPa | 0 mm | 0.45 m/s, 140° | 658 W/m² | - |
| 1777996372 | 28.33° C | 55% | 1017.2 hPa | 0 mm | 0.45 m/s, 123° | 248 W/m² | - |
| 1777996068 | 28.33° C | 54% | 1017.2 hPa | 0 mm | 0.89 m/s, 130° | 323 W/m² | - |
| 1777995765 | 28.33° C | 55% | 1016.9 hPa | 0 mm | 0 m/s | 249 W/m² | - |
* Rain latest hour (hover to see other rain measurements)
** Current wind speed in m/s (hover to see current wind gust speed)